Monday, December 18, 2017, 9:24 AM EST
Back to Local

KUNV, State College, University Park Airport

Location: State College, PA, United States Lat: 40.85
Local Time: 9:24 AM EST (14:24 GMT) Lon: -77.85
Time Zone: US/Eastern Elev: 1240 ft

Show me the last for .
Show Coded

Time T Td Feel RH Dir Speed Gust Alt SLP Vis Weather Sky Remarks
2017-12-18 08:53 32 30 - 92 - Calm - 30.05 - 8 SCT060 None
2017-12-18 07:53 32 30 - 92 - Calm - 30.06 - 5 BR OVC039 None
2017-12-18 06:53 30 28 - 92 - Calm - 30.06 - 4 BR SCT050 BKN065 None
2017-12-18 05:53 32 30 - 92 - Calm - 30.05 - 8 SCT075 None
2017-12-18 05:35 32 30 - 94 - Calm - 30.06 - 7 BKN075 None
2017-12-18 05:15 32 30 - 94 - Calm - 30.06 - 5 BR OVC075 None
2017-12-18 04:55 32 30 - 94 - Calm - 30.06 - 5 BR OVC075 None
2017-12-18 04:35 32 30 29 93 130° 3 - 30.06 - 5 BR OVC075 None
2017-12-18 04:15 33 31 30 90 240° 3 - 30.06 - 7 OVC075 None
2017-12-18 03:55 32 31 27 95 280° 5 - 30.06 - 5 BR SCT060 OVC075 None
2017-12-18 03:35 32 31 26 95 280° 6 - 30.06 - 5 BR OVC060 None
2017-12-18 03:15 32 31 27 95 270° 5 - 30.06 - 4 BR BKN060 OVC080 None
2017-12-18 02:55 32 30 - 93 - Calm - 30.07 - 5 BR SCT048 OVC060 None
2017-12-18 02:35 32 31 - 95 - Calm - 30.08 - 4 UP SCT035 BKN047 OVC060 None
2017-12-18 02:15 32 31 - 95 - Calm - 30.09 - 4 BR SCT031 OVC037 None
2017-12-18 01:55 32 30 - 95 - Calm - 30.09 - 4 BR OVC034 None
2017-12-18 01:35 32 30 - 94 - Calm - 30.10 - 5 BR OVC034 None
2017-12-18 01:15 31 30 - 94 - Calm - 30.09 - 5 BR OVC034 None
2017-12-18 00:55 31 30 - 94 - Calm - 30.09 - 7 OVC036 6-hr Min Temp (1am): 31.1°F
6-hr Max Temp (1am): 32.4°F
2017-12-18 00:35 31 30 - 94 - Calm - 30.09 - 7 OVC036 None
2017-12-18 00:15 31 30 - 93 - Calm - 30.10 - 7 OVC038 None
2017-12-17 23:55 32 30 - 93 - Calm - 30.10 - 5 BR OVC036 None
2017-12-17 23:35 32 30 27 94 340° 5 - 30.10 - 5 BR OVC032 None
2017-12-17 23:15 32 30 29 91 360° 3 - 30.10 - 7 OVC028 None
2017-12-17 22:55 32 29 - 90 - Calm - 30.11 - 5 UP BKN028 OVC034 24-hr Min Temp (11pm): 24.3°F
24-hr Max Temp (11pm): 34.2°F
2017-12-17 22:35 32 29 - 88 - Calm - 30.11 - 7 UP OVC035 None
2017-12-17 22:15 32 28 - 87 - Calm - 30.12 - 5 UP OVC035 None
2017-12-17 21:53 32 28 - 86 - Calm - 30.12 - 7 -DZ OVC035 None
2017-12-17 20:53 32 28 - 86 - Calm - 30.13 - 7 SCT025 BKN070 OVC080 None
2017-12-17 19:53 32 28 - 86 - Calm - 30.13 - 7 OVC110 None
2017-12-17 18:53 32 27 - 80 - Calm - 30.14 - 7 OVC110 None
2017-12-17 17:53 32 28 - 86 - Calm - 30.15 - 7 OVC110 None
2017-12-17 16:53 32 28 - 86 - Calm - 30.15 - 7 BKN120 None
2017-12-17 15:53 34 28 - 80 - Calm - 30.13 - 7 SCT120 None
2017-12-17 14:53 34 28 - 80 - Calm - 30.13 - 7 CLR None
2017-12-17 13:53 34 28 - 80 - Calm - 30.15 - 7 CLR None
2017-12-17 12:53 32 27 - 80 - Calm - 30.17 - 7 CLR None
2017-12-17 11:53 32 27 - 80 - Calm - 30.21 - 7 CLR None
2017-12-17 10:53 30 27 - 86 - Calm - 30.22 - 7 CLR None
2017-12-17 09:53 28 25 - 86 - Calm - 30.23 - 8 BKN080 None

Support USWX by starting your Amazon purchase here.